• Join FlightAware (Why Join?)
  • Login
  • US Flag 
06:22PM EDT


 

Airport Tracker/Info


-or-


 

Live Flight TrackerFlight Track Log ✈ SWA1810 ✈ 25-Apr-2013 ✈ KBWI - KCMH

Flight Track Log - Related Links

Times and Time Zones

All times are in EDT time to prevent confusion due to time zone crossing. See the SWA1810 flight status page for this flight to view local times or setup timezone preferences in your user account.

Time Position Orientation Groundspeed Altitude Reporting Facility
EDT Latitude Longitude Course Direction KTS MPH feet Rate Location/Type
11:11AM 39.1833 -76.7167 270° West 178 205 1,800  Level Potomac TRACON
11:12AM 39.1833 -76.8000 270° West 219 252 4,200 2,880 Climbing Potomac TRACON
11:13AM 39.1833 -76.8833 270° West 254 292 7,600 3,540 Climbing Potomac TRACON
11:15AM 39.2061 -77.1156 277° West 281 323 16,400 3,360 Climbing Washington Center
11:16AM 39.1694 -77.1953 239° Southwest 267 307 19,200 2,520 Climbing Washington Center
11:17AM 39.1061 -77.2661 221° Southwest 276 318 21,500 2,160 Climbing Washington Center
11:18AM 39.0856 -77.3886 258° West 293 337 23,600 2,460 Climbing Washington Center
11:19AM 39.0669 -77.5083 259° West 328 377 26,500 1,680 Climbing Washington Center
11:20AM 39.0506 -77.6203 259° West 334 384 27,000 1,200 Climbing Washington Center
11:21AM 39.0317 -77.7428 259° West 339 390 29,000 1,500 Climbing Washington Center
11:22AM 39.0147 -77.8811 261° West 353 406 30,000 480 Climbing Washington Center
11:23AM 38.9936 -78.0033 258° West 359 413 30,000  Level Washington Center
11:24AM 38.9742 -78.1256 258° West 359 413 30,000  Level Washington Center
11:25AM 38.9611 -78.2478 262° West 354 407 30,000  Level Washington Center
11:26AM 38.9647 -78.3681 272° West 354 407 30,000  Level Washington Center
11:27AM 38.9700 -78.4939 273° West 348 400 30,000  Level Washington Center
11:28AM 38.9733 -78.6167 272° West 348 400 30,000  Level Washington Center
11:29AM 38.9764 -78.7425 272° West 348 400 30,000  Level Washington Center
11:30AM 38.9814 -78.8681 273° West 348 400 30,000  Level Washington Center
11:31AM 38.9842 -78.9911 272° West 348 400 30,000  Level Washington Center
11:32AM 38.9869 -79.1169 272° West 348 400 30,000  Level Washington Center
11:33AM 38.9894 -79.2397 272° West 348 400 30,000  Level Washington Center
11:34AM 38.9939 -79.3628 273° West 348 400 30,000  Level Washington Center
11:35AM 38.9964 -79.4858 272° West 348 400 30,000  Level Washington Center
11:36AM 38.9986 -79.6036 271° West 355 409 30,000  Level Washington Center
11:37AM 39.0003 -79.7372 271° West 355 409 30,000  Level Washington Center
11:39AM 39.0206 -79.9961 276° West 344 396 30,000  Level Indianapolis Center
11:40AM 39.0319 -80.1083 277° West 345 397 30,000  Level Indianapolis Center
11:41AM 39.0475 -80.2558 278° West 346 398 30,000  Level Indianapolis Center
11:42AM 39.0597 -80.3789 277° West 347 399 30,000  Level Indianapolis Center
11:43AM 39.0714 -80.5011 277° West 346 398 30,000  Level Indianapolis Center
11:44AM 39.0839 -80.6236 278° West 346 398 30,000  Level Indianapolis Center
11:45AM 39.0953 -80.7469 277° West 348 400 30,000  Level Indianapolis Center
11:46AM 39.1083 -80.8694 278° West 346 398 30,000  Level Indianapolis Center
11:47AM 39.1200 -80.9931 277° West 349 402 30,000 -660 Level Indianapolis Center
11:48AM 39.1450 -81.1339 283° West 339 390 28,700 -1,140 Descending Indianapolis Center
11:49AM 39.1853 -81.2431 295° West 339 390 27,700 -1,020 Descending Indianapolis Center
11:51AM 39.2261 -81.3517 296° West 339 390 26,700 -1,020 Descending Indianapolis Center
11:52AM 39.2656 -81.4611 295° West 338 389 25,700 -1,020 Descending Indianapolis Center
11:53AM 39.3053 -81.5647 296° West 325 374 24,700 -1,080 Descending Indianapolis Center
11:54AM 39.3417 -81.6681 295° West 318 366 23,500 -1,740 Descending Indianapolis Center
11:55AM 39.3864 -81.7864 296° West 306 352 21,200 -2,040 Descending Indianapolis Center
11:56AM 39.4211 -81.8822 295° West 296 341 19,400 -1,680 Descending Indianapolis Center
11:57AM 39.4533 -81.9756 294° West 286 329 17,800 -1,560 Descending Indianapolis Center
11:57AM 39.4750 -82.0297 297° West 282 325 16,900 -1,380 Descending Indianapolis Center
11:58AM 39.4875 -82.0656 294° West 279 321 16,400 -1,800 Descending Indianapolis Center
11:58AM 39.5125 -82.1361 295° West 274 315 14,900 -1,980 Descending Indianapolis Center
11:59AM 39.5222 -82.1639 294° West 270 311 14,400 -1,920 Descending Indianapolis Center
11:59AM 39.5556 -82.2164 309° West 276 318 13,000 -1,980 Descending Indianapolis Center
12:00PM 39.5772 -82.2347 327° Northwest 280 322 12,400 -1,620 Descending Indianapolis Center
12:01PM 39.6425 -82.2958 324° Northwest 285 328 10,800 -1,380 Descending Indianapolis Center
12:01PM 39.6822 -82.3350 323° Northwest 281 323 10,100 -900 Descending Indianapolis Center
12:02PM 39.7044 -82.3553 325° Northwest 277 319 9,900 -1,140 Descending Indianapolis Center
12:02PM 39.7392 -82.3925 321° Northwest 259 298 9,000 -1,260 Descending Indianapolis Center
12:03PM 39.7586 -82.4078 329° Northwest 248 285 8,600 -1,140 Descending Indianapolis Center
12:03PM 39.7867 -82.4353 323° Northwest 245 282 8,000 -1,260 Descending Indianapolis Center
12:04PM 39.8139 -82.4600 325° Northwest 243 280 7,300 -1,380 Descending Indianapolis Center
12:05PM 39.8497 -82.4964 322° Northwest 240 276 6,500 -1,200 Descending Indianapolis Center
12:05PM 39.8675 -82.5117 327° Northwest 239 275 6,100 -1,020 Descending Indianapolis Center
12:05PM 39.8953 -82.5367 325° Northwest 237 273 5,600 -780 Descending Indianapolis Center
12:06PM 39.9283 -82.5692 323° Northwest 231 266 5,300 -480 Descending Indianapolis Center
12:07PM 39.9600 -82.6036 320° Northwest 225 259 5,000 -600 Descending Indianapolis Center
12:07PM 39.9750 -82.6161 327° Northwest 217 250 4,700 -1,020 Descending Indianapolis Center
12:07PM 39.9808 -82.6383 289° West 210 242 4,300 -1,080 Descending Indianapolis Center
12:08PM 39.9825 -82.6808 273° West 196 226 3,600 -1,020 Descending Indianapolis Center
12:09PM 39.9844 -82.7122 275° West 168 193 3,200 -780 Descending Indianapolis Center
12:09PM 39.9858 -82.7419 273° West 179 206 2,800 -840 Descending Indianapolis Center
12:10PM 39.9883 -82.7922 274° West 156 180 2,000 -840 Descending Indianapolis Center
12:11PM 39.9897 -82.8217 274° West 124 143 1,500 -720 Descending Indianapolis Center
12:11PM 39.9911 -82.8372 277° West 136 157 1,300 -300 Descending Indianapolis Center
12:12PM 39.9944 -82.8914 275° West 134 154 1,100 -240 Descending Indianapolis Center
12:14PM 39.9980 -82.8920 352° North  Level Estimated
12:21PM 39.9980 -82.8920 90° East  Level Estimated
12:22PM 39.9980 -82.8920 90° East  Level Estimated